sensor_id;sensor_type;location;lat;lon;timestamp;pressure;altitude;pressure_sealevel;temperature;humidity
57056;BME280;42945;51.718;5.324;2023-04-28T00:00:16;101098.78;;;7.63;100.00
57056;BME280;42945;51.718;5.324;2023-04-28T00:02:41;101118.31;;;7.59;100.00
57056;BME280;42945;51.718;5.324;2023-04-28T00:05:07;100990.28;;;6.84;100.00
57056;BME280;42945;51.718;5.324;2023-04-28T00:07:33;101065.75;;;7.54;100.00
57056;BME280;42945;51.718;5.324;2023-04-28T00:09:58;100978.78;;;6.86;100.00
57056;BME280;42945;51.718;5.324;2023-04-28T00:12:23;101053.88;;;7.42;100.00
57056;BME280;42945;51.718;5.324;2023-04-28T00:14:49;101063.03;;;7.34;100.00
57056;BME280;42945;51.718;5.324;2023-04-28T00:17:14;101100.53;;;7.42;100.00
57056;BME280;42945;51.718;5.324;2023-04-28T00:19:39;101116.31;;;7.43;100.00
57056;BME280;42945;51.718;5.324;2023-04-28T00:22:05;101110.19;;;7.43;100.00
57056;BME280;42945;51.718;5.324;2023-04-28T00:24:30;100978.03;;;6.61;100.00
57056;BME280;42945;51.718;5.324;2023-04-28T00:26:57;101085.16;;;7.31;100.00
57056;BME280;42945;51.718;5.324;2023-04-28T00:29:23;101080.19;;;7.23;100.00
57056;BME280;42945;51.718;5.324;2023-04-28T00:31:48;101066.31;;;7.18;100.00
57056;BME280;42945;51.718;5.324;2023-04-28T00:34:13;101049.13;;;7.08;100.00
57056;BME280;42945;51.718;5.324;2023-04-28T00:36:39;101052.72;;;7.05;100.00
57056;BME280;42945;51.718;5.324;2023-04-28T00:39:04;101086.84;;;7.10;100.00
57056;BME280;42945;51.718;5.324;2023-04-28T00:41:30;101048.19;;;6.87;100.00
57056;BME280;42945;51.718;5.324;2023-04-28T00:43:55;101080.56;;;6.90;100.00
57056;BME280;42945;51.718;5.324;2023-04-28T00:46:28;100914.41;;;6.02;100.00
57056;BME280;42945;51.718;5.324;2023-04-28T00:48:54;101069.88;;;6.94;100.00
57056;BME280;42945;51.718;5.324;2023-04-28T00:51:20;101036.06;;;6.83;100.00
57056;BME280;42945;51.718;5.324;2023-04-28T00:53:45;101030.28;;;6.73;100.00
57056;BME280;42945;51.718;5.324;2023-04-28T00:56:11;101291.94;;;8.42;100.00
57056;BME280;42945;51.718;5.324;2023-04-28T00:58:37;101014.31;;;6.76;100.00
57056;BME280;42945;51.718;5.324;2023-04-28T01:01:06;101029.47;;;6.71;100.00
57056;BME280;42945;51.718;5.324;2023-04-28T01:03:39;101062.41;;;6.83;100.00
57056;BME280;42945;51.718;5.324;2023-04-28T01:06:06;101055.81;;;6.95;100.00
57056;BME280;42945;51.718;5.324;2023-04-28T01:08:34;100985.38;;;6.53;100.00
57056;BME280;42945;51.718;5.324;2023-04-28T01:10:59;100987.13;;;6.76;100.00
57056;BME280;42945;51.718;5.324;2023-04-28T01:13:26;101040.78;;;6.75;100.00
57056;BME280;42945;51.718;5.324;2023-04-28T01:15:51;101043.31;;;6.76;100.00
57056;BME280;42945;51.718;5.324;2023-04-28T01:18:16;100911.09;;;6.21;100.00
57056;BME280;42945;51.718;5.324;2023-04-28T01:20:42;101003.53;;;6.82;100.00
57056;BME280;42945;51.718;5.324;2023-04-28T01:23:14;100991.28;;;6.81;100.00
57056;BME280;42945;51.718;5.324;2023-04-28T01:25:40;101007.97;;;6.82;100.00
57056;BME280;42945;51.718;5.324;2023-04-28T01:28:06;100979.09;;;6.79;100.00
57056;BME280;42945;51.718;5.324;2023-04-28T01:30:32;100972.78;;;6.83;100.00
57056;BME280;42945;51.718;5.324;2023-04-28T01:32:57;100899.81;;;6.39;100.00
57056;BME280;42945;51.718;5.324;2023-04-28T01:35:23;100982.84;;;6.73;100.00
57056;BME280;42945;51.718;5.324;2023-04-28T01:37:48;100884.91;;;6.16;100.00
57056;BME280;42945;51.718;5.324;2023-04-28T01:40:13;100974.97;;;6.72;100.00
57056;BME280;42945;51.718;5.324;2023-04-28T01:42:39;100990.34;;;6.82;100.00
57056;BME280;42945;51.718;5.324;2023-04-28T01:45:04;100902.69;;;6.11;100.00
57056;BME280;42945;51.718;5.324;2023-04-28T01:47:30;101003.47;;;6.84;100.00
57056;BME280;42945;51.718;5.324;2023-04-28T01:49:56;100966.03;;;6.76;100.00
57056;BME280;42945;51.718;5.324;2023-04-28T01:52:21;100994.78;;;6.82;100.00
57056;BME280;42945;51.718;5.324;2023-04-28T01:54:48;100951.94;;;6.77;100.00
57056;BME280;42945;51.718;5.324;2023-04-28T01:57:14;100902.03;;;6.72;100.00
57056;BME280;42945;51.718;5.324;2023-04-28T01:59:39;101025.38;;;6.86;100.00
57056;BME280;42945;51.718;5.324;2023-04-28T02:02:04;100866.94;;;6.49;100.00
57056;BME280;42945;51.718;5.324;2023-04-28T02:04:30;100821.41;;;6.24;100.00
57056;BME280;42945;51.718;5.324;2023-04-28T02:06:55;100959.03;;;6.97;100.00
57056;BME280;42945;51.718;5.324;2023-04-28T02:09:20;100964.50;;;6.92;100.00
57056;BME280;42945;51.718;5.324;2023-04-28T02:11:46;100936.78;;;6.82;100.00
57056;BME280;42945;51.718;5.324;2023-04-28T02:14:11;100967.25;;;6.89;100.00
57056;BME280;42945;51.718;5.324;2023-04-28T02:16:36;100995.72;;;6.81;100.00
57056;BME280;42945;51.718;5.324;2023-04-28T02:19:02;100928.28;;;6.75;100.00
57056;BME280;42945;51.718;5.324;2023-04-28T02:21:27;100800.47;;;6.21;100.00
57056;BME280;42945;51.718;5.324;2023-04-28T02:23:52;100940.69;;;6.94;100.00
57056;BME280;42945;51.718;5.324;2023-04-28T02:26:18;100853.16;;;6.21;100.00
57056;BME280;42945;51.718;5.324;2023-04-28T02:28:43;100905.81;;;6.87;100.00
57056;BME280;42945;51.718;5.324;2023-04-28T02:31:09;100782.34;;;6.13;100.00
57056;BME280;42945;51.718;5.324;2023-04-28T02:33:36;100930.53;;;6.84;100.00
57056;BME280;42945;51.718;5.324;2023-04-28T02:36:03;100906.41;;;6.73;100.00
57056;BME280;42945;51.718;5.324;2023-04-28T02:38:29;100755.66;;;6.00;100.00
57056;BME280;42945;51.718;5.324;2023-04-28T02:40:58;100931.97;;;6.71;100.00
57056;BME280;42945;51.718;5.324;2023-04-28T02:43:24;100871.72;;;6.62;100.00
57056;BME280;42945;51.718;5.324;2023-04-28T02:45:50;100902.59;;;6.58;100.00
57056;BME280;42945;51.718;5.324;2023-04-28T02:48:15;100898.78;;;6.65;100.00
57056;BME280;42945;51.718;5.324;2023-04-28T02:50:40;100890.41;;;6.56;100.00
57056;BME280;42945;51.718;5.324;2023-04-28T02:53:06;100867.34;;;6.61;100.00
57056;BME280;42945;51.718;5.324;2023-04-28T02:55:31;100755.06;;;5.92;100.00
57056;BME280;42945;51.718;5.324;2023-04-28T02:57:56;100916.16;;;6.71;100.00
57056;BME280;42945;51.718;5.324;2023-04-28T03:00:22;100921.91;;;7.23;100.00
57056;BME280;42945;51.718;5.324;2023-04-28T03:02:47;100752.13;;;6.01;100.00
57056;BME280;42945;51.718;5.324;2023-04-28T03:05:12;100886.47;;;6.66;100.00
57056;BME280;42945;51.718;5.324;2023-04-28T03:07:38;100884.56;;;6.69;100.00
57056;BME280;42945;51.718;5.324;2023-04-28T03:10:03;100880.84;;;6.75;100.00
57056;BME280;42945;51.718;5.324;2023-04-28T03:12:29;100756.69;;;5.96;100.00
57056;BME280;42945;51.718;5.324;2023-04-28T03:14:54;100835.75;;;6.81;100.00
57056;BME280;42945;51.718;5.324;2023-04-28T03:17:20;100780.88;;;6.06;100.00
57056;BME280;42945;51.718;5.324;2023-04-28T03:19:45;100870.09;;;6.80;100.00
57056;BME280;42945;51.718;5.324;2023-04-28T03:22:10;100913.09;;;6.80;100.00
57056;BME280;42945;51.718;5.324;2023-04-28T03:24:35;100873.78;;;6.76;100.00
57056;BME280;42945;51.718;5.324;2023-04-28T03:27:01;100857.97;;;6.76;100.00
57056;BME280;42945;51.718;5.324;2023-04-28T03:29:27;100883.56;;;6.72;100.00
57056;BME280;42945;51.718;5.324;2023-04-28T03:31:53;100891.22;;;6.78;100.00
57056;BME280;42945;51.718;5.324;2023-04-28T03:34:19;100752.66;;;6.09;100.00
57056;BME280;42945;51.718;5.324;2023-04-28T03:36:45;100853.22;;;6.84;100.00
57056;BME280;42945;51.718;5.324;2023-04-28T03:39:10;100897.25;;;6.82;100.00
57056;BME280;42945;51.718;5.324;2023-04-28T03:41:35;100880.00;;;6.95;100.00
57056;BME280;42945;51.718;5.324;2023-04-28T03:44:00;100855.69;;;6.88;100.00
57056;BME280;42945;51.718;5.324;2023-04-28T03:46:26;100821.41;;;6.88;100.00
57056;BME280;42945;51.718;5.324;2023-04-28T03:48:51;100727.47;;;6.24;100.00
57056;BME280;42945;51.718;5.324;2023-04-28T03:51:17;100851.94;;;6.94;100.00
57056;BME280;42945;51.718;5.324;2023-04-28T03:53:43;100850.19;;;6.93;100.00
57056;BME280;42945;51.718;5.324;2023-04-28T03:56:08;100826.28;;;6.77;100.00
57056;BME280;42945;51.718;5.324;2023-04-28T03:58:34;100878.72;;;6.83;100.00
57056;BME280;42945;51.718;5.324;2023-04-28T04:00:59;100822.16;;;6.70;100.00
57056;BME280;42945;51.718;5.324;2023-04-28T04:03:25;100835.38;;;6.90;100.00
57056;BME280;42945;51.718;5.324;2023-04-28T04:05:51;100795.13;;;6.65;100.00
57056;BME280;42945;51.718;5.324;2023-04-28T04:08:18;100843.59;;;6.83;100.00
57056;BME280;42945;51.718;5.324;2023-04-28T04:10:43;100855.78;;;6.85;100.00
57056;BME280;42945;51.718;5.324;2023-04-28T04:13:08;100868.72;;;6.92;100.00
57056;BME280;42945;51.718;5.324;2023-04-28T04:15:34;100859.91;;;6.93;100.00
57056;BME280;42945;51.718;5.324;2023-04-28T04:17:59;100837.22;;;6.88;100.00
57056;BME280;42945;51.718;5.324;2023-04-28T04:20:25;100726.69;;;6.22;100.00
57056;BME280;42945;51.718;5.324;2023-04-28T04:22:50;100861.59;;;6.94;100.00
57056;BME280;42945;51.718;5.324;2023-04-28T04:25:15;100848.03;;;7.03;100.00
57056;BME280;42945;51.718;5.324;2023-04-28T04:27:41;100883.03;;;7.06;100.00
57056;BME280;42945;51.718;5.324;2023-04-28T04:30:07;100829.16;;;6.92;100.00
57056;BME280;42945;51.718;5.324;2023-04-28T04:32:32;100809.81;;;6.93;100.00
57056;BME280;42945;51.718;5.324;2023-04-28T04:34:59;100907.91;;;7.62;100.00
57056;BME280;42945;51.718;5.324;2023-04-28T04:37:24;100856.72;;;7.05;100.00
57056;BME280;42945;51.718;5.324;2023-04-28T04:39:49;100921.09;;;7.62;100.00
57056;BME280;42945;51.718;5.324;2023-04-28T04:42:14;100715.56;;;6.36;100.00
57056;BME280;42945;51.718;5.324;2023-04-28T04:44:40;100712.72;;;6.41;100.00
57056;BME280;42945;51.718;5.324;2023-04-28T04:47:05;100808.25;;;7.07;100.00
57056;BME280;42945;51.718;5.324;2023-04-28T04:49:30;100793.00;;;6.95;100.00
57056;BME280;42945;51.718;5.324;2023-04-28T04:51:56;100834.06;;;7.01;100.00
57056;BME280;42945;51.718;5.324;2023-04-28T04:54:22;100656.16;;;6.29;100.00
57056;BME280;42945;51.718;5.324;2023-04-28T04:56:47;100892.00;;;7.23;100.00
57056;BME280;42945;51.718;5.324;2023-04-28T04:59:13;100881.00;;;7.13;100.00
57056;BME280;42945;51.718;5.324;2023-04-28T05:01:38;100852.91;;;7.12;100.00
57056;BME280;42945;51.718;5.324;2023-04-28T05:04:03;100857.72;;;7.23;100.00
57056;BME280;42945;51.718;5.324;2023-04-28T05:06:29;100733.16;;;6.56;100.00
57056;BME280;42945;51.718;5.324;2023-04-28T05:08:55;100722.56;;;6.58;100.00
57056;BME280;42945;51.718;5.324;2023-04-28T05:11:22;100857.66;;;7.24;100.00
57056;BME280;42945;51.718;5.324;2023-04-28T05:13:47;100734.13;;;6.95;100.00
57056;BME280;42945;51.718;5.324;2023-04-28T05:16:13;100774.06;;;7.06;100.00
57056;BME280;42945;51.718;5.324;2023-04-28T05:18:38;100828.50;;;7.27;100.00
57056;BME280;42945;51.718;5.324;2023-04-28T05:21:04;100794.56;;;7.20;100.00
57056;BME280;42945;51.718;5.324;2023-04-28T05:23:30;100845.25;;;7.26;100.00
57056;BME280;42945;51.718;5.324;2023-04-28T05:25:55;100816.28;;;7.25;100.00
57056;BME280;42945;51.718;5.324;2023-04-28T05:28:21;100677.94;;;6.74;100.00
57056;BME280;42945;51.718;5.324;2023-04-28T05:30:46;100815.16;;;7.51;100.00
57056;BME280;42945;51.718;5.324;2023-04-28T05:33:11;100589.25;;;6.33;100.00
57056;BME280;42945;51.718;5.324;2023-04-28T05:35:38;100805.59;;;7.48;100.00
57056;BME280;42945;51.718;5.324;2023-04-28T05:38:03;100686.81;;;6.92;100.00
57056;BME280;42945;51.718;5.324;2023-04-28T05:40:29;100826.44;;;7.74;100.00
57056;BME280;42945;51.718;5.324;2023-04-28T05:42:54;100799.22;;;7.91;100.00
57056;BME280;42945;51.718;5.324;2023-04-28T05:45:19;100828.13;;;7.75;100.00
57056;BME280;42945;51.718;5.324;2023-04-28T05:47:45;100737.91;;;7.47;100.00
57056;BME280;42945;51.718;5.324;2023-04-28T05:50:10;100787.19;;;7.85;100.00
57056;BME280;42945;51.718;5.324;2023-04-28T05:52:36;100815.00;;;7.92;100.00
57056;BME280;42945;51.718;5.324;2023-04-28T05:55:01;100734.69;;;7.22;100.00
57056;BME280;42945;51.718;5.324;2023-04-28T05:57:26;100803.19;;;8.01;100.00
57056;BME280;42945;51.718;5.324;2023-04-28T05:59:52;100778.09;;;8.09;100.00
57056;BME280;42945;51.718;5.324;2023-04-28T06:02:19;100816.50;;;8.17;100.00
57056;BME280;42945;51.718;5.324;2023-04-28T06:04:44;100834.03;;;8.18;100.00
57056;BME280;42945;51.718;5.324;2023-04-28T06:07:09;100823.22;;;8.24;100.00
57056;BME280;42945;51.718;5.324;2023-04-28T06:09:35;100824.34;;;8.18;100.00
57056;BME280;42945;51.718;5.324;2023-04-28T06:12:01;100812.63;;;8.24;100.00
57056;BME280;42945;51.718;5.324;2023-04-28T06:14:27;100810.31;;;8.35;100.00
57056;BME280;42945;51.718;5.324;2023-04-28T06:16:53;100710.53;;;7.86;100.00
57056;BME280;42945;51.718;5.324;2023-04-28T06:19:18;100813.34;;;8.64;100.00
57056;BME280;42945;51.718;5.324;2023-04-28T06:21:44;100799.59;;;8.57;100.00
57056;BME280;42945;51.718;5.324;2023-04-28T06:24:10;100793.59;;;8.54;100.00
57056;BME280;42945;51.718;5.324;2023-04-28T06:26:35;100800.19;;;8.62;100.00
57056;BME280;42945;51.718;5.324;2023-04-28T06:29:01;100797.09;;;8.35;100.00
57056;BME280;42945;51.718;5.324;2023-04-28T06:31:27;100803.41;;;8.69;100.00
57056;BME280;42945;51.718;5.324;2023-04-28T06:33:52;100692.00;;;8.05;100.00
57056;BME280;42945;51.718;5.324;2023-04-28T06:36:17;100811.47;;;8.83;100.00
57056;BME280;42945;51.718;5.324;2023-04-28T06:38:43;100710.53;;;8.40;100.00
57056;BME280;42945;51.718;5.324;2023-04-28T06:41:09;100788.63;;;8.82;100.00
57056;BME280;42945;51.718;5.324;2023-04-28T06:43:35;100812.31;;;9.01;100.00
57056;BME280;42945;51.718;5.324;2023-04-28T06:46:00;100831.63;;;9.03;100.00
57056;BME280;42945;51.718;5.324;2023-04-28T06:48:26;100800.56;;;8.90;100.00
57056;BME280;42945;51.718;5.324;2023-04-28T06:50:52;100827.41;;;8.99;100.00
57056;BME280;42945;51.718;5.324;2023-04-28T06:53:17;100817.16;;;8.93;100.00
57056;BME280;42945;51.718;5.324;2023-04-28T06:55:42;100849.06;;;9.07;100.00
57056;BME280;42945;51.718;5.324;2023-04-28T06:58:08;100847.25;;;9.08;100.00
57056;BME280;42945;51.718;5.324;2023-04-28T07:00:33;100582.81;;;7.89;100.00
57056;BME280;42945;51.718;5.324;2023-04-28T07:02:59;100727.19;;;8.60;100.00
57056;BME280;42945;51.718;5.324;2023-04-28T07:05:25;100691.94;;;8.77;100.00
57056;BME280;42945;51.718;5.324;2023-04-28T07:07:52;100795.81;;;9.47;100.00
57056;BME280;42945;51.718;5.324;2023-04-28T07:10:17;100710.50;;;8.93;100.00
57056;BME280;42945;51.718;5.324;2023-04-28T07:12:44;100801.31;;;9.60;100.00
57056;BME280;42945;51.718;5.324;2023-04-28T07:15:10;100809.63;;;9.70;100.00
57056;BME280;42945;51.718;5.324;2023-04-28T07:17:35;100757.22;;;9.75;100.00
57056;BME280;42945;51.718;5.324;2023-04-28T07:20:01;100825.22;;;9.58;100.00
57056;BME280;42945;51.718;5.324;2023-04-28T07:22:26;100690.78;;;8.82;100.00
57056;BME280;42945;51.718;5.324;2023-04-28T07:24:51;100789.91;;;9.42;100.00
57056;BME280;42945;51.718;5.324;2023-04-28T07:27:17;100800.00;;;9.18;100.00
57056;BME280;42945;51.718;5.324;2023-04-28T07:29:42;100784.34;;;9.31;100.00
57056;BME280;42945;51.718;5.324;2023-04-28T07:32:08;100821.16;;;9.35;100.00
57056;BME280;42945;51.718;5.324;2023-04-28T07:34:34;100700.59;;;8.80;100.00
57056;BME280;42945;51.718;5.324;2023-04-28T07:37:01;100839.59;;;9.37;100.00
57056;BME280;42945;51.718;5.324;2023-04-28T07:39:27;100843.19;;;9.36;100.00
57056;BME280;42945;51.718;5.324;2023-04-28T07:41:52;100664.88;;;8.72;100.00
57056;BME280;42945;51.718;5.324;2023-04-28T07:44:18;100826.44;;;9.35;100.00
57056;BME280;42945;51.718;5.324;2023-04-28T07:46:43;100765.03;;;8.78;100.00
57056;BME280;42945;51.718;5.324;2023-04-28T07:49:08;100872.81;;;9.60;100.00
57056;BME280;42945;51.718;5.324;2023-04-28T07:51:34;100878.38;;;9.71;100.00
57056;BME280;42945;51.718;5.324;2023-04-28T07:53:59;100846.34;;;9.76;100.00
57056;BME280;42945;51.718;5.324;2023-04-28T07:56:24;100785.88;;;9.68;100.00
57056;BME280;42945;51.718;5.324;2023-04-28T07:58:51;100838.56;;;9.73;100.00
57056;BME280;42945;51.718;5.324;2023-04-28T08:01:16;100900.69;;;10.16;100.00
57056;BME280;42945;51.718;5.324;2023-04-28T08:03:42;100876.81;;;10.00;100.00
57056;BME280;42945;51.718;5.324;2023-04-28T08:06:07;100850.81;;;9.91;100.00
57056;BME280;42945;51.718;5.324;2023-04-28T08:08:33;100841.94;;;10.08;100.00
57056;BME280;42945;51.718;5.324;2023-04-28T08:10:59;100882.69;;;10.05;100.00
57056;BME280;42945;51.718;5.324;2023-04-28T08:13:24;100860.31;;;9.95;100.00
57056;BME280;42945;51.718;5.324;2023-04-28T08:15:49;100608.28;;;8.92;100.00
57056;BME280;42945;51.718;5.324;2023-04-28T08:18:15;100826.47;;;10.48;100.00
57056;BME280;42945;51.718;5.324;2023-04-28T08:20:40;100697.78;;;9.80;100.00
57056;BME280;42945;51.718;5.324;2023-04-28T08:23:07;100821.22;;;10.47;100.00
57056;BME280;42945;51.718;5.324;2023-04-28T08:25:32;100712.81;;;9.80;100.00
57056;BME280;42945;51.718;5.324;2023-04-28T08:27:58;100835.69;;;10.25;100.00
57056;BME280;42945;51.718;5.324;2023-04-28T08:30:23;100884.84;;;10.78;100.00
57056;BME280;42945;51.718;5.324;2023-04-28T08:32:48;100727.25;;;9.58;100.00
57056;BME280;42945;51.718;5.324;2023-04-28T08:35:14;100881.03;;;10.52;100.00
57056;BME280;42945;51.718;5.324;2023-04-28T08:37:40;100734.94;;;9.79;100.00
57056;BME280;42945;51.718;5.324;2023-04-28T08:40:06;100754.78;;;9.88;100.00
57056;BME280;42945;51.718;5.324;2023-04-28T08:42:34;100865.91;;;10.38;100.00
57056;BME280;42945;51.718;5.324;2023-04-28T08:45:02;100825.56;;;10.33;100.00
57056;BME280;42945;51.718;5.324;2023-04-28T08:47:32;100865.63;;;10.59;100.00
57056;BME280;42945;51.718;5.324;2023-04-28T08:50:07;100834.41;;;10.48;100.00
57056;BME280;42945;51.718;5.324;2023-04-28T08:52:34;100834.75;;;10.58;100.00
57056;BME280;42945;51.718;5.324;2023-04-28T08:55:03;100894.09;;;10.71;100.00
57056;BME280;42945;51.718;5.324;2023-04-28T08:57:34;100920.66;;;10.86;100.00
57056;BME280;42945;51.718;5.324;2023-04-28T09:00:01;100756.72;;;10.32;100.00
57056;BME280;42945;51.718;5.324;2023-04-28T09:02:27;100854.69;;;10.95;100.00
57056;BME280;42945;51.718;5.324;2023-04-28T09:04:52;100757.28;;;10.67;100.00
57056;BME280;42945;51.718;5.324;2023-04-28T09:07:18;100811.22;;;11.27;100.00
57056;BME280;42945;51.718;5.324;2023-04-28T09:09:43;100717.81;;;10.62;100.00
57056;BME280;42945;51.718;5.324;2023-04-28T09:12:09;100737.75;;;10.68;100.00
57056;BME280;42945;51.718;5.324;2023-04-28T09:14:36;100843.28;;;11.52;100.00
57056;BME280;42945;51.718;5.324;2023-04-28T09:17:09;100860.06;;;11.53;100.00
57056;BME280;42945;51.718;5.324;2023-04-28T09:19:36;100807.38;;;11.88;100.00
57056;BME280;42945;51.718;5.324;2023-04-28T09:22:02;100770.06;;;11.34;100.00
57056;BME280;42945;51.718;5.324;2023-04-28T09:24:28;100851.81;;;11.72;100.00
57056;BME280;42945;51.718;5.324;2023-04-28T09:26:54;100778.63;;;11.25;100.00
57056;BME280;42945;51.718;5.324;2023-04-28T09:29:20;100860.06;;;11.53;100.00
57056;BME280;42945;51.718;5.324;2023-04-28T09:31:45;100826.59;;;11.79;100.00
57056;BME280;42945;51.718;5.324;2023-04-28T09:34:11;100832.09;;;11.90;100.00
57056;BME280;42945;51.718;5.324;2023-04-28T09:36:37;100875.81;;;11.70;100.00
57056;BME280;42945;51.718;5.324;2023-04-28T09:39:02;100607.56;;;10.28;100.00
57056;BME280;42945;51.718;5.324;2023-04-28T09:41:38;100862.09;;;11.63;100.00
57056;BME280;42945;51.718;5.324;2023-04-28T09:44:17;100835.09;;;11.84;100.00
57056;BME280;42945;51.718;5.324;2023-04-28T09:46:49;100731.78;;;11.09;100.00
57056;BME280;42945;51.718;5.324;2023-04-28T09:49:14;100793.19;;;11.32;100.00
57056;BME280;42945;51.718;5.324;2023-04-28T09:51:40;100742.75;;;11.32;100.00
57056;BME280;42945;51.718;5.324;2023-04-28T09:54:06;100869.28;;;11.90;100.00
57056;BME280;42945;51.718;5.324;2023-04-28T09:56:33;100892.06;;;11.80;100.00
57056;BME280;42945;51.718;5.324;2023-04-28T09:59:02;100611.53;;;10.21;100.00
57056;BME280;42945;51.718;5.324;2023-04-28T10:01:39;100733.44;;;10.81;100.00
57056;BME280;42945;51.718;5.324;2023-04-28T10:04:05;100609.16;;;10.16;100.00
57056;BME280;42945;51.718;5.324;2023-04-28T10:06:33;100864.16;;;11.73;100.00
57056;BME280;42945;51.718;5.324;2023-04-28T10:09:00;100881.44;;;11.80;100.00
57056;BME280;42945;51.718;5.324;2023-04-28T10:11:25;100922.25;;;12.08;100.00
57056;BME280;42945;51.718;5.324;2023-04-28T10:13:52;100868.59;;;12.30;100.00
57056;BME280;42945;51.718;5.324;2023-04-28T10:16:18;100867.50;;;12.47;100.00
57056;BME280;42945;51.718;5.324;2023-04-28T10:18:44;100850.06;;;12.28;100.00
57056;BME280;42945;51.718;5.324;2023-04-28T10:21:11;100812.28;;;12.23;100.00
57056;BME280;42945;51.718;5.324;2023-04-28T10:27:07;100807.16;;;12.47;100.00
57056;BME280;42945;51.718;5.324;2023-04-28T10:29:34;100836.72;;;12.43;100.00
57056;BME280;42945;51.718;5.324;2023-04-28T10:32:20;100728.72;;;12.00;100.00
57056;BME280;42945;51.718;5.324;2023-04-28T10:34:47;100844.09;;;12.52;100.00
57056;BME280;42945;51.718;5.324;2023-04-28T10:37:13;100723.34;;;11.73;100.00
57056;BME280;42945;51.718;5.324;2023-04-28T10:39:40;100851.53;;;12.47;100.00
57056;BME280;42945;51.718;5.324;2023-04-28T10:45:10;100875.19;;;12.10;100.00
57056;BME280;42945;51.718;5.324;2023-04-28T10:48:00;100770.63;;;11.39;100.00
57056;BME280;42945;51.718;5.324;2023-04-28T10:50:28;100868.53;;;12.02;100.00
57056;BME280;42945;51.718;5.324;2023-04-28T10:52:55;100853.94;;;11.95;100.00
57056;BME280;42945;51.718;5.324;2023-04-28T11:00:44;100709.94;;;11.18;100.00
57056;BME280;42945;51.718;5.324;2023-04-28T11:03:48;100862.44;;;11.72;100.00
57056;BME280;42945;51.718;5.324;2023-04-28T11:06:25;100828.75;;;11.87;100.00
57056;BME280;42945;51.718;5.324;2023-04-28T11:08:55;100839.50;;;11.85;100.00
57056;BME280;42945;51.718;5.324;2023-04-28T11:11:25;100830.00;;;11.67;100.00
57056;BME280;42945;51.718;5.324;2023-04-28T11:13:52;100840.25;;;11.73;100.00
57056;BME280;42945;51.718;5.324;2023-04-28T11:16:20;100781.28;;;11.25;100.00
57056;BME280;42945;51.718;5.324;2023-04-28T11:18:56;100740.75;;;11.07;100.00
57056;BME280;42945;51.718;5.324;2023-04-28T11:21:24;100859.22;;;11.81;100.00
57056;BME280;42945;51.718;5.324;2023-04-28T11:23:50;100800.97;;;11.78;100.00
57056;BME280;42945;51.718;5.324;2023-04-28T11:26:16;100815.03;;;11.94;100.00
57056;BME280;42945;51.718;5.324;2023-04-28T11:28:46;100848.59;;;11.81;100.00
57056;BME280;42945;51.718;5.324;2023-04-28T11:31:12;100739.81;;;11.36;100.00
57056;BME280;42945;51.718;5.324;2023-04-28T11:33:39;100847.47;;;11.99;100.00
57056;BME280;42945;51.718;5.324;2023-04-28T11:36:05;100836.06;;;12.12;100.00
57056;BME280;42945;51.718;5.324;2023-04-28T11:38:42;100848.69;;;12.08;100.00
57056;BME280;42945;51.718;5.324;2023-04-28T11:41:08;100882.00;;;12.14;100.00
57056;BME280;42945;51.718;5.324;2023-04-28T11:43:33;100705.75;;;11.57;100.00
57056;BME280;42945;51.718;5.324;2023-04-28T11:46:00;100857.63;;;12.34;100.00
57056;BME280;42945;51.718;5.324;2023-04-28T11:48:25;100827.69;;;12.18;100.00
57056;BME280;42945;51.718;5.324;2023-04-28T11:50:51;100865.44;;;12.37;100.00
57056;BME280;42945;51.718;5.324;2023-04-28T11:53:16;100876.81;;;12.39;100.00
57056;BME280;42945;51.718;5.324;2023-04-28T11:55:42;100871.81;;;12.35;100.00
57056;BME280;42945;51.718;5.324;2023-04-28T11:58:20;100855.25;;;12.02;100.00
57056;BME280;42945;51.718;5.324;2023-04-28T12:01:08;100829.91;;;11.82;100.00
57056;BME280;42945;51.718;5.324;2023-04-28T12:03:46;100852.78;;;11.56;100.00
57056;BME280;42945;51.718;5.324;2023-04-28T12:06:16;100763.78;;;10.92;100.00
57056;BME280;42945;51.718;5.324;2023-04-28T12:08:42;100970.09;;;12.08;100.00
57056;BME280;42945;51.718;5.324;2023-04-28T12:11:09;100889.50;;;11.50;100.00
57056;BME280;42945;51.718;5.324;2023-04-28T12:13:36;100885.69;;;11.54;100.00
57056;BME280;42945;51.718;5.324;2023-04-28T12:16:03;100834.88;;;11.01;100.00
57056;BME280;42945;51.718;5.324;2023-04-28T12:18:30;100893.66;;;11.54;100.00
57056;BME280;42945;51.718;5.324;2023-04-28T12:20:56;100911.22;;;11.56;100.00
57056;BME280;42945;51.718;5.324;2023-04-28T12:23:31;100916.53;;;11.56;100.00
57056;BME280;42945;51.718;5.324;2023-04-28T12:25:57;100900.59;;;11.71;100.00
57056;BME280;42945;51.718;5.324;2023-04-28T12:28:23;100883.13;;;11.52;100.00
57056;BME280;42945;51.718;5.324;2023-04-28T12:31:04;100841.38;;;11.69;100.00
57056;BME280;42945;51.718;5.324;2023-04-28T12:33:30;100886.75;;;11.66;100.00
57056;BME280;42945;51.718;5.324;2023-04-28T12:35:58;100880.28;;;11.70;100.00
57056;BME280;42945;51.718;5.324;2023-04-28T12:38:24;100875.19;;;11.95;100.00
57056;BME280;42945;51.718;5.324;2023-04-28T12:40:50;100799.38;;;11.47;100.00
57056;BME280;42945;51.718;5.324;2023-04-28T12:43:16;100835.31;;;12.10;100.00
57056;BME280;42945;51.718;5.324;2023-04-28T12:45:41;102660.59;;;22.91;100.00
57056;BME280;42945;51.718;5.324;2023-04-28T12:48:07;100887.53;;;12.79;100.00
57056;BME280;42945;51.718;5.324;2023-04-28T12:50:32;100862.78;;;12.77;100.00
57056;BME280;42945;51.718;5.324;2023-04-28T12:52:58;100897.03;;;12.96;100.00